North Park, Indiana
Current Conditions -  °F | °C
As of 5:54 AM on Monday 20 Oct 2014 (Local Time) from KEVV Reporting Station
Light Rain Light Rain  
Wind Chill: 10°   Ceiling: 10000
Heat Index: 10°   Visibility: 10mi
Dew Point:   Wind: 6mph
Humidity: 93%   Direction: 170°S
Pressure: 30.02"   Gusts: NA
Location:  38.0194°N, 87.5754°W
Report Text: KEVV 201054Z 17005KT 10SM -RA OVC100 10/09 A3002 RMK AO2 SLP166 P0006 T01000089
Loading
Personal Weather Stations






























Interactive Weather Map
Tropical Storm Tracking
New forecast layout! Learn more

10-Day Weather Forecast

Advertisements
Track Severe Weather on mobile